Time;durP1;ratioP1;P1;durP2;ratioP2;P2;SDS_P1;SDS_P2;PMS_P1;PMS_P2;Temp;Humidity;BMP_temperature;BMP_pressure;BME280_temperature;BME280_humidity;BME280_pressure;Samples;Min_cycle;Max_cycle;Signal;HPM_P1;HPM_P2
2023/11/14 00:02:02;;;;;;;29.75;5.18;;;;;;;9.51;100.00;100171.53;5099482;28;20065;-73
2023/11/14 00:04:46;;;;;;;26.30;4.05;;;;;;;9.54;100.00;100184.81;5099409;28;20043;-73
2023/11/14 00:07:30;;;;;;;31.83;4.38;;;;;;;9.54;100.00;100193.13;5079234;28;20047;-73
2023/11/14 00:10:15;;;;;;;23.90;4.22;;;;;;;9.55;100.00;100197.53;5083229;28;20089;-73
2023/11/14 00:12:59;;;;;;;28.05;4.80;;;;;;;9.56;100.00;100201.97;5056115;28;20059;-73
2023/11/14 00:15:43;;;;;;;33.22;4.60;;;;;;;9.58;100.00;100193.34;5088135;28;20063;-73
2023/11/14 00:18:27;;;;;;;28.27;4.05;;;;;;;9.60;100.00;100188.34;5085370;28;20035;-73
2023/11/14 00:21:12;;;;;;;25.95;4.80;;;;;;;9.61;100.00;100193.59;5094734;28;20392;-73
2023/11/14 00:23:56;;;;;;;37.05;4.50;;;;;;;9.63;100.00;100185.78;5077888;28;20082;-73
2023/11/14 00:26:40;;;;;;;27.80;4.18;;;;;;;9.67;100.00;100185.19;5092214;28;20105;-73
2023/11/14 00:29:24;;;;;;;23.05;4.30;;;;;;;9.69;100.00;100202.38;5077577;28;20043;-73
2023/11/14 00:32:08;;;;;;;32.33;4.82;;;;;;;9.70;100.00;100192.97;5078686;28;20413;-73
2023/11/14 00:34:52;;;;;;;23.60;4.32;;;;;;;9.70;100.00;100201.28;5063075;28;20043;-73
2023/11/14 00:37:36;;;;;;;33.13;4.50;;;;;;;9.72;100.00;100212.88;5078723;28;20094;-73
2023/11/14 00:40:21;;;;;;;22.38;3.58;;;;;;;9.72;100.00;100207.31;5078566;28;20043;-73
2023/11/14 00:43:05;;;;;;;21.08;3.58;;;;;;;9.74;100.00;100207.88;5064460;28;20094;-73
2023/11/14 00:45:49;;;;;;;27.58;4.22;;;;;;;9.73;100.00;100211.78;5090976;28;20052;-73
2023/11/14 00:48:33;;;;;;;29.58;3.83;;;;;;;9.74;100.00;100230.06;5090303;28;20078;-73
2023/11/14 00:51:17;;;;;;;27.80;4.20;;;;;;;9.76;100.00;100227.81;5083257;28;20070;-73
2023/11/14 00:54:01;;;;;;;29.38;4.50;;;;;;;9.77;100.00;100244.16;5094874;28;20109;-73
2023/11/14 00:56:45;;;;;;;30.35;4.10;;;;;;;9.77;100.00;100235.00;5094160;28;20443;-73
2023/11/14 00:59:30;;;;;;;32.75;4.30;;;;;;;9.80;100.00;100238.00;5087110;28;20101;-73
2023/11/14 01:02:15;;;;;;;24.00;4.18;;;;;;;9.80;100.00;100235.22;5084574;28;20145;-73
2023/11/14 01:04:59;;;;;;;15.55;3.63;;;;;;;9.82;100.00;100243.28;5075368;28;20078;-73
2023/11/14 01:07:43;;;;;;;21.33;4.47;;;;;;;9.83;100.00;100236.59;5088124;28;20169;-73
2023/11/14 01:10:27;;;;;;;24.48;3.45;;;;;;;9.84;100.00;100241.03;5075616;28;20098;-73
2023/11/14 01:13:11;;;;;;;22.58;3.85;;;;;;;9.87;100.00;100226.56;5076530;28;20629;-73
2023/11/14 01:15:55;;;;;;;22.13;4.07;;;;;;;9.88;100.00;100230.16;5076603;28;20116;-73
2023/11/14 01:18:40;;;;;;;26.67;4.25;;;;;;;9.88;100.00;100230.16;5082424;28;20069;-73
2023/11/14 01:21:25;;;;;;;28.90;3.83;;;;;;;9.89;100.00;100232.66;5092533;28;20613;-73
2023/11/14 01:24:09;;;;;;;27.60;4.32;;;;;;;9.88;100.00;100233.75;5087959;28;20051;-73
2023/11/14 01:26:53;;;;;;;28.40;3.88;;;;;;;9.91;100.00;100224.84;5091045;28;20082;-73
2023/11/14 01:29:38;;;;;;;22.40;4.18;;;;;;;9.92;100.00;100234.84;5079410;28;20098;-73
2023/11/14 01:32:22;;;;;;;25.60;3.42;;;;;;;9.91;100.00;100230.38;5097716;28;20035;-73
2023/11/14 01:35:06;;;;;;;22.33;3.45;;;;;;;9.91;100.00;100224.84;5083616;28;20420;-73
2023/11/14 01:37:50;;;;;;;29.17;3.97;;;;;;;9.92;100.00;100209.88;5081223;28;20388;-73
2023/11/14 01:40:35;;;;;;;18.25;3.22;;;;;;;9.93;100.00;100205.13;5077342;28;20044;-73
2023/11/14 01:43:19;;;;;;;21.75;3.63;;;;;;;9.93;100.00;100200.41;5079736;28;20089;-73
2023/11/14 01:46:03;;;;;;;19.40;3.63;;;;;;;9.95;100.00;100195.41;5078861;28;20039;-73
2023/11/14 01:48:50;;;;;;;28.65;4.65;;;;;;;9.96;100.00;100199.81;5076040;28;20098;-73
2023/11/14 01:51:35;;;;;;;25.20;3.92;;;;;;;9.95;100.00;100203.72;5087894;28;20039;-73
2023/11/14 01:54:20;;;;;;;27.02;3.70;;;;;;;9.97;100.00;100228.38;5078436;28;20492;-73
2023/11/14 01:57:04;;;;;;;20.20;3.58;;;;;;;9.96;100.00;100233.09;5068694;28;20054;-73
2023/11/14 01:59:48;;;;;;;23.23;3.63;;;;;;;10.00;100.00;100233.31;5076103;28;20067;-73
2023/11/14 02:02:32;;;;;;;23.80;3.53;;;;;;;9.99;100.00;100243.59;5095014;28;20047;-73
2023/11/14 02:05:19;;;;;;;26.63;4.22;;;;;;;10.00;100.00;100228.63;5088046;28;20054;-73
2023/11/14 02:08:04;;;;;;;30.15;3.92;;;;;;;10.01;100.00;100240.56;5084593;28;20518;-73
2023/11/14 02:10:49;;;;;;;27.17;4.45;;;;;;;10.02;100.00;100248.56;5061984;28;20067;-73
2023/11/14 02:13:33;;;;;;;26.23;3.28;;;;;;;10.06;100.00;100248.81;5076627;28;20051;-73
2023/11/14 02:16:17;;;;;;;20.27;2.85;;;;;;;10.04;100.00;100235.22;5090400;28;20055;-73
2023/11/14 02:19:01;;;;;;;23.15;3.30;;;;;;;10.05;100.00;100223.00;5084646;28;20093;-73
2023/11/14 02:21:46;;;;;;;24.45;3.47;;;;;;;10.06;100.00;100198.88;5095317;28;20074;-73
2023/11/14 02:24:30;;;;;;;22.15;3.33;;;;;;;10.05;100.00;100189.69;5073697;28;20378;-73
2023/11/14 02:27:14;;;;;;;26.15;4.25;;;;;;;10.02;100.00;100179.19;5067456;28;20543;-73
2023/11/14 02:29:59;;;;;;;30.27;3.80;;;;;;;10.04;100.00;100199.16;5093403;28;20043;-73
2023/11/14 02:32:43;;;;;;;32.88;3.85;;;;;;;10.04;100.00;100182.50;5080536;28;20051;-73
2023/11/14 02:35:27;;;;;;;25.27;3.72;;;;;;;10.03;100.00;100189.19;5090054;28;20054;-73
2023/11/14 02:38:11;;;;;;;20.85;3.85;;;;;;;10.04;100.00;100181.69;5095015;28;20079;-73
2023/11/14 02:40:55;;;;;;;27.23;4.03;;;;;;;10.06;100.00;100166.41;5096357;28;20078;-73
2023/11/14 02:43:39;;;;;;;27.13;4.07;;;;;;;10.06;100.00;100174.72;5092477;28;20047;-73
2023/11/14 02:46:23;;;;;;;25.65;3.55;;;;;;;10.07;100.00;100165.25;5087851;28;20502;-73
2023/11/14 02:49:23;;;;;;;23.40;3.55;;;;;;;10.08;100.00;100166.06;5082986;28;20047;-73
2023/11/14 02:52:07;;;;;;;25.02;3.00;;;;;;;10.08;100.00;100146.66;5080798;28;20043;-73
2023/11/14 02:54:51;;;;;;;26.13;3.28;;;;;;;10.09;100.00;100159.44;5099834;28;20040;-73
2023/11/14 02:57:35;;;;;;;22.50;3.45;;;;;;;10.10;100.00;100160.25;5093908;28;20435;-73
2023/11/14 03:00:19;;;;;;;31.85;4.43;;;;;;;10.09;100.00;100147.50;5080436;28;20054;-73
2023/11/14 03:03:04;;;;;;;26.20;3.60;;;;;;;10.07;100.00;100150.56;5079280;28;20439;-73
2023/11/14 03:05:48;;;;;;;27.15;4.55;;;;;;;10.05;100.00;100142.53;5099505;28;20097;-73
2023/11/14 03:08:32;;;;;;;23.65;4.18;;;;;;;10.07;100.00;100136.69;5083148;28;20040;-73
2023/11/14 03:11:16;;;;;;;28.67;4.72;;;;;;;10.09;100.00;100144.72;5079908;28;20086;-73
2023/11/14 03:14:01;;;;;;;28.02;4.80;;;;;;;10.06;100.00;100163.63;5088418;28;20093;-73
2023/11/14 03:16:47;;;;;;;34.28;5.10;;;;;;;10.09;100.00;100175.25;5080448;28;20504;-73
2023/11/14 03:19:32;;;;;;;23.73;3.95;;;;;;;10.10;100.00;100201.88;5091110;28;20434;-73
2023/11/14 03:22:16;;;;;;;32.72;5.18;;;;;;;10.07;100.00;100212.44;5097226;28;20061;-73
2023/11/14 03:25:00;;;;;;;37.50;5.10;;;;;;;10.07;100.00;100197.72;5086654;28;20039;-73
2023/11/14 03:27:44;;;;;;;21.70;4.00;;;;;;;10.06;100.00;100194.16;5085664;28;20043;-73
2023/11/14 03:30:28;;;;;;;29.20;5.07;;;;;;;10.07;100.00;100184.69;5074117;28;20404;-73
2023/11/14 03:33:12;;;;;;;24.50;4.43;;;;;;;10.02;100.00;100198.63;5098936;28;20512;-73
2023/11/14 03:35:57;;;;;;;32.70;4.95;;;;;;;10.04;100.00;100179.72;5085297;28;20039;-73
2023/11/14 03:38:42;;;;;;;19.15;3.85;;;;;;;10.05;100.00;100186.91;5079846;28;20090;-73
2023/11/14 03:41:26;;;;;;;25.38;3.80;;;;;;;10.04;100.00;100201.09;5078574;28;20389;-73
2023/11/14 03:44:10;;;;;;;24.85;4.65;;;;;;;10.04;100.00;100187.25;5079775;28;20124;-73
2023/11/14 03:46:54;;;;;;;43.65;4.78;;;;;;;10.06;100.00;100183.03;5091207;28;20089;-73
2023/11/14 03:49:38;;;;;;;26.80;4.32;;;;;;;10.06;100.00;100155.28;5086421;28;20396;-73
2023/11/14 03:52:25;;;;;;;27.75;4.07;;;;;;;10.05;100.00;100163.91;5093510;28;20055;-73
2023/11/14 03:55:09;;;;;;;33.22;4.93;;;;;;;10.06;100.00;100171.94;5081152;28;20066;-73
2023/11/14 03:57:54;;;;;;;28.30;4.07;;;;;;;10.06;100.00;100165.56;5082504;28;20043;-73
2023/11/14 04:00:38;;;;;;;28.67;3.97;;;;;;;10.06;100.00;100160.84;5079479;28;20113;-73
2023/11/14 04:03:22;;;;;;;28.85;4.13;;;;;;;10.09;100.00;100159.44;5078851;28;20071;-73
2023/11/14 04:06:11;;;;;;;28.05;3.92;;;;;;;10.11;100.00;100156.34;5092931;28;20376;-73
2023/11/14 04:08:56;;;;;;;32.25;4.75;;;;;;;10.11;100.00;100176.56;5088433;28;20055;-73
2023/11/14 04:11:46;;;;;;;23.95;4.47;;;;;;;10.10;100.00;100176.88;5078024;28;20035;-73
2023/11/14 04:14:31;;;;;;;27.00;4.45;;;;;;;10.12;100.00;100155.22;5079054;28;20058;-73
2023/11/14 04:17:15;;;;;;;25.23;4.55;;;;;;;10.14;100.00;100144.63;5091233;28;20043;-73
2023/11/14 04:19:59;;;;;;;32.67;4.13;;;;;;;10.16;100.00;100120.19;5077088;28;20105;-73
2023/11/14 04:22:43;;;;;;;30.10;4.25;;;;;;;10.19;100.00;100150.09;5091019;28;20081;-73
2023/11/14 04:25:27;;;;;;;29.60;4.53;;;;;;;10.21;100.00;100173.66;5087649;28;20115;-73
2023/11/14 04:28:12;;;;;;;26.98;4.22;;;;;;;10.21;100.00;100170.06;5080659;28;20043;-73
2023/11/14 04:30:56;;;;;;;37.33;4.70;;;;;;;10.24;100.00;100177.78;5087029;28;20512;-73
2023/11/14 04:33:40;;;;;;;31.73;4.10;;;;;;;10.24;100.00;100155.59;5087068;28;20039;-73
2023/11/14 04:36:24;;;;;;;29.95;4.10;;;;;;;10.26;100.00;100153.34;5078413;28;20048;-73
2023/11/14 04:39:09;;;;;;;27.27;4.35;;;;;;;10.27;100.00;100135.59;5076787;28;20102;-73
2023/11/14 04:41:53;;;;;;;35.70;4.38;;;;;;;10.28;100.00;100140.84;5076768;28;20039;-73
2023/11/14 04:44:37;;;;;;;23.48;3.55;;;;;;;10.28;100.00;100128.94;5075454;28;20043;-73
2023/11/14 04:47:21;;;;;;;31.52;4.72;;;;;;;10.30;100.00;100115.56;5076329;28;20044;-73
2023/11/14 04:50:06;;;;;;;32.78;4.90;;;;;;;10.32;100.00;100127.19;5077819;28;20067;-73
2023/11/14 04:52:50;;;;;;;31.67;3.90;;;;;;;10.33;100.00;100137.16;5077433;28;20039;-73
2023/11/14 04:55:34;;;;;;;27.15;4.47;;;;;;;10.36;100.00;100133.78;5079727;28;20039;-73
2023/11/14 04:58:18;;;;;;;31.70;4.85;;;;;;;10.36;100.00;100142.09;5081766;28;20047;-73
2023/11/14 05:01:03;;;;;;;33.92;4.20;;;;;;;10.37;100.00;100142.94;5086777;28;20467;-73
2023/11/14 05:03:47;;;;;;;38.80;4.25;;;;;;;10.38;100.00;100156.50;5097791;28;20038;-73
2023/11/14 05:06:32;;;;;;;30.48;4.38;;;;;;;10.40;100.00;100143.16;5097423;28;20031;-73
2023/11/14 05:09:16;;;;;;;39.72;4.72;;;;;;;10.41;100.00;100146.75;5077972;28;20434;-73
2023/11/14 05:12:00;;;;;;;35.30;4.50;;;;;;;10.44;100.00;100135.03;5076749;28;20389;-73
2023/11/14 05:14:47;;;;;;;36.25;4.90;;;;;;;10.45;100.00;100123.66;5077184;28;20043;-73
2023/11/14 05:17:31;;;;;;;32.15;5.28;;;;;;;10.46;100.00;100119.75;5077468;28;20100;-73
2023/11/14 05:20:15;;;;;;;23.55;3.28;;;;;;;10.48;100.00;100100.00;5091856;28;20046;-73
2023/11/14 05:22:59;;;;;;;38.60;5.25;;;;;;;10.50;100.00;100119.94;5097499;28;20046;-73
2023/11/14 05:25:43;;;;;;;28.88;3.92;;;;;;;10.50;100.00;100123.56;5088297;28;20031;-73
2023/11/14 05:28:27;;;;;;;32.45;5.50;;;;;;;10.53;100.00;100130.47;5077687;28;20090;-73
2023/11/14 05:31:11;;;;;;;34.95;4.32;;;;;;;10.55;100.00;100146.81;5085908;28;20097;-73
2023/11/14 05:33:55;;;;;;;29.67;4.40;;;;;;;10.56;100.00;100156.78;5085927;28;20062;-73
2023/11/14 05:36:40;;;;;;;38.95;4.53;;;;;;;10.58;100.00;100154.53;5091024;28;20121;-73
2023/11/14 05:39:24;;;;;;;34.85;5.07;;;;;;;10.58;100.00;100140.66;5077442;28;20090;-73
2023/11/14 05:42:08;;;;;;;33.95;5.38;;;;;;;10.60;100.00;100130.91;5096656;28;20086;-73
2023/11/14 05:44:52;;;;;;;25.80;4.38;;;;;;;10.64;100.00;100144.97;5077600;28;20388;-73
2023/11/14 05:47:36;;;;;;;32.25;4.93;;;;;;;10.65;100.00;100127.22;5079739;28;20039;-73
2023/11/14 05:50:20;;;;;;;30.85;4.75;;;;;;;10.66;100.00;100140.78;5096296;28;20073;-73
2023/11/14 05:53:04;;;;;;;38.88;4.78;;;;;;;10.66;100.00;100135.22;5086341;28;20165;-73
2023/11/14 05:55:48;;;;;;;39.72;5.05;;;;;;;10.68;100.00;100127.44;5091449;28;20044;-73
2023/11/14 05:58:33;;;;;;;34.03;5.05;;;;;;;10.70;100.00;100129.91;5094985;28;20070;-73
2023/11/14 06:01:17;;;;;;;26.38;4.70;;;;;;;10.71;100.00;100117.66;5076563;28;20574;-73
2023/11/14 06:04:02;;;;;;;34.25;4.32;;;;;;;10.71;100.00;100114.88;5076865;28;20108;-73
2023/11/14 06:06:46;;;;;;;33.05;4.45;;;;;;;10.74;100.00;100100.38;5067802;28;20043;-73
2023/11/14 06:09:30;;;;;;;37.72;4.75;;;;;;;10.76;100.00;100100.09;5096504;28;20047;-73
2023/11/14 06:12:14;;;;;;;37.33;4.57;;;;;;;10.79;100.00;100110.59;5096307;28;20484;-73
2023/11/14 06:14:58;;;;;;;36.58;5.65;;;;;;;10.80;100.00;100110.25;5096112;28;20036;-73
2023/11/14 06:17:42;;;;;;;29.58;4.47;;;;;;;10.81;100.00;100081.38;5086386;28;20450;-73
2023/11/14 06:20:27;;;;;;;33.55;4.45;;;;;;;10.82;100.00;100077.47;5091627;28;20058;-73
2023/11/14 06:23:11;;;;;;;27.15;4.20;;;;;;;10.84;100.00;100096.63;5094223;28;20043;-73
2023/11/14 06:25:56;;;;;;;42.97;5.00;;;;;;;10.84;100.00;100094.66;5089264;28;20039;-73
2023/11/14 06:28:40;;;;;;;42.83;4.78;;;;;;;10.86;100.00;100091.56;5084873;28;20066;-73
2023/11/14 06:31:26;;;;;;;31.08;4.47;;;;;;;10.85;100.00;100073.25;5084195;28;20069;-73
2023/11/14 06:34:13;;;;;;;37.45;6.05;;;;;;;10.87;100.00;100063.47;5084001;28;20556;-73
2023/11/14 06:36:57;;;;;;;29.35;4.43;;;;;;;10.86;100.00;100059.03;5085167;28;20085;-73
2023/11/14 06:39:41;;;;;;;38.72;4.90;;;;;;;10.87;100.00;100063.47;5077892;28;20043;-73
2023/11/14 06:42:26;;;;;;;36.83;5.00;;;;;;;10.88;100.00;100075.41;5078064;28;20085;-73
2023/11/14 06:45:10;;;;;;;36.55;4.88;;;;;;;10.90;100.00;100092.59;5086339;28;20051;-73
2023/11/14 06:47:54;;;;;;;39.72;5.45;;;;;;;10.91;100.00;100097.84;5076404;28;20039;-73
2023/11/14 06:50:39;;;;;;;37.08;4.60;;;;;;;10.89;100.00;100102.91;5078841;28;20117;-73
2023/11/14 06:53:23;;;;;;;35.35;4.30;;;;;;;10.89;100.00;100082.59;5084821;28;20070;-73
2023/11/14 06:56:11;;;;;;;36.35;5.63;;;;;;;10.89;100.00;100082.59;5083570;28;20043;-73
2023/11/14 06:58:55;;;;;;;31.90;4.63;;;;;;;10.88;100.00;100087.34;5075548;28;20399;-73
2023/11/14 07:01:39;;;;;;;33.67;4.50;;;;;;;10.90;100.00;100082.31;5076649;28;20079;-73
2023/11/14 07:04:23;;;;;;;33.85;5.20;;;;;;;10.88;100.00;100081.78;5085629;28;20113;-73
2023/11/14 07:07:07;;;;;;;37.28;5.53;;;;;;;10.89;100.00;100077.91;5090012;28;20035;-73
2023/11/14 07:09:51;;;;;;;39.55;4.78;;;;;;;10.89;100.00;100079.81;5080191;28;20055;-73
2023/11/14 07:12:35;;;;;;;36.28;5.03;;;;;;;10.90;100.00;100068.41;5079032;28;20052;-73
2023/11/14 07:15:20;;;;;;;32.35;4.70;;;;;;;10.90;100.00;100048.16;5079947;28;20101;-73
2023/11/14 07:18:08;;;;;;;36.65;4.90;;;;;;;10.91;100.00;100044.22;5080084;28;20032;-73
2023/11/14 07:20:52;;;;;;;26.42;4.07;;;;;;;10.91;100.00;100027.56;5096299;28;20153;-73
2023/11/14 07:23:36;;;;;;;29.08;4.35;;;;;;;10.90;100.00;100015.63;5094402;28;20574;-73
2023/11/14 07:26:20;;;;;;;38.22;4.60;;;;;;;10.91;100.00;100008.94;5093041;28;20079;-73
2023/11/14 07:29:04;;;;;;;30.63;4.65;;;;;;;10.90;100.00;100007.31;5079929;28;20059;-73
2023/11/14 07:31:49;;;;;;;31.27;3.90;;;;;;;10.91;100.00;100011.72;5086523;28;20070;-73
2023/11/14 07:34:34;;;;;;;43.13;4.43;;;;;;;10.93;100.00;100022.53;5097337;28;20043;-73
2023/11/14 07:37:18;;;;;;;37.50;5.47;;;;;;;10.93;100.00;100028.09;5096500;28;20438;-73
2023/11/14 07:40:04;;;;;;;35.22;4.63;;;;;;;10.90;100.00;100018.41;5091423;28;20069;-73
2023/11/14 07:42:49;;;;;;;29.85;4.25;;;;;;;10.92;100.00;100007.81;5081564;28;20090;-73
2023/11/14 07:45:33;;;;;;;26.95;4.93;;;;;;;10.92;100.00;100016.16;5099603;28;20085;-73
2023/11/14 07:48:18;;;;;;;41.35;5.18;;;;;;;10.91;100.00;100028.38;5079555;28;20075;-73
2023/11/14 07:51:03;;;;;;;28.25;4.15;;;;;;;10.92;100.00;100045.88;5085299;28;20043;-73
2023/11/14 07:53:47;;;;;;;28.00;4.32;;;;;;;10.91;100.00;100058.13;5084642;28;20081;-73
2023/11/14 07:56:32;;;;;;;38.22;4.78;;;;;;;10.90;100.00;100054.53;5090746;28;20443;-73
2023/11/14 07:59:16;;;;;;;37.97;4.65;;;;;;;10.91;100.00;100047.00;5078589;28;20094;-73
2023/11/14 08:02:01;;;;;;;27.00;4.50;;;;;;;10.90;100.00;100050.94;5078960;28;20098;-73
2023/11/14 08:04:45;;;;;;;38.63;5.53;;;;;;;10.88;100.00;100051.22;5081716;28;20039;-73
2023/11/14 08:07:29;;;;;;;20.65;3.83;;;;;;;10.90;100.00;100057.31;5087490;28;20101;-73
2023/11/14 08:10:16;;;;;;;40.92;4.47;;;;;;;10.92;100.00;100043.09;5081877;28;20047;-73
2023/11/14 08:13:00;;;;;;;27.58;4.75;;;;;;;10.89;100.00;100022.34;5078769;28;20060;-73
2023/11/14 08:15:45;;;;;;;26.65;3.90;;;;;;;10.90;100.00;100007.31;5078716;28;20039;-73
2023/11/14 08:18:30;;;;;;;24.35;3.80;;;;;;;10.89;100.00;99997.34;5081964;28;20077;-73
2023/11/14 08:21:14;;;;;;;31.95;4.53;;;;;;;10.91;100.00;100003.38;5093049;28;20409;-73
2023/11/14 08:23:58;;;;;;;28.02;4.15;;;;;;;10.90;100.00;100000.94;5087563;28;20722;-73
2023/11/14 08:26:42;;;;;;;28.20;3.67;;;;;;;10.91;100.00;100027.56;5092681;28;20035;-73
2023/11/14 08:29:26;;;;;;;24.63;4.10;;;;;;;10.90;100.00;100021.19;5085413;28;20047;-73
2023/11/14 08:32:12;;;;;;;23.88;3.65;;;;;;;10.90;100.00;100003.69;5077588;28;20093;-73
2023/11/14 08:34:58;;;;;;;21.75;4.03;;;;;;;10.90;100.00;99990.63;5078507;28;20043;-73
2023/11/14 08:37:42;;;;;;;32.33;4.03;;;;;;;10.91;100.00;99997.00;5078482;28;20170;-73
2023/11/14 08:40:28;;;;;;;29.17;3.83;;;;;;;10.93;100.00;99997.53;5077559;28;20042;-73
2023/11/14 08:43:13;;;;;;;25.13;3.80;;;;;;;10.91;100.00;99986.72;5085716;28;20035;-73
2023/11/14 08:45:57;;;;;;;27.20;4.00;;;;;;;10.92;100.00;99971.72;5078796;28;20106;-73
2023/11/14 08:48:41;;;;;;;22.35;3.35;;;;;;;10.92;100.00;99965.31;5078168;28;20105;-73
2023/11/14 08:51:26;;;;;;;25.67;3.25;;;;;;;10.92;100.00;99968.94;5088539;28;20093;-73
2023/11/14 08:54:11;;;;;;;23.02;3.40;;;;;;;10.93;100.00;99959.44;5097309;28;20112;-73
2023/11/14 08:56:56;;;;;;;24.25;3.20;;;;;;;10.94;100.00;99951.94;5097535;28;20067;-73
2023/11/14 08:59:40;;;;;;;23.80;3.17;;;;;;;10.95;100.00;99946.06;5097395;28;20090;-73
2023/11/14 09:02:25;;;;;;;20.40;3.17;;;;;;;10.95;100.00;99943.31;5097968;28;20059;-73
2023/11/14 09:05:11;;;;;;;32.08;3.45;;;;;;;10.95;100.00;99937.75;5098159;28;20097;-73
2023/11/14 09:07:56;;;;;;;25.45;3.30;;;;;;;10.98;100.00;99932.69;5096714;28;20388;-73
2023/11/14 09:10:40;;;;;;;23.17;3.58;;;;;;;10.99;100.00;99923.22;5085837;28;20055;-73
2023/11/14 09:13:24;;;;;;;22.48;3.45;;;;;;;10.99;100.00;99926.00;5097644;28;20443;-73
2023/11/14 09:16:09;;;;;;;26.90;3.67;;;;;;;10.99;100.00;99912.13;5096407;28;20035;-73
2023/11/14 09:18:58;;;;;;;28.50;3.85;;;;;;;10.98;100.00;99916.84;5076588;28;20059;-73
2023/11/14 09:21:43;;;;;;;25.88;3.65;;;;;;;10.99;100.00;99914.88;5089232;28;20047;-73
2023/11/14 09:24:27;;;;;;;20.08;3.50;;;;;;;10.99;100.00;99923.22;5085916;28;20078;-73
2023/11/14 09:27:12;;;;;;;28.45;4.07;;;;;;;10.99;100.00;99928.78;5085255;28;20097;-73
2023/11/14 09:29:56;;;;;;;22.70;3.20;;;;;;;10.99;100.00;99937.13;5082821;28;20035;-73
2023/11/14 09:32:41;;;;;;;20.08;3.17;;;;;;;11.00;100.00;99942.34;5083309;28;20039;-73
2023/11/14 09:35:26;;;;;;;20.38;3.78;;;;;;;11.00;100.00;99927.63;5077646;28;20071;-73
2023/11/14 09:38:10;;;;;;;21.88;3.53;;;;;;;11.03;100.00;99943.69;5077410;28;20108;-73
2023/11/14 09:40:54;;;;;;;28.67;3.70;;;;;;;11.04;100.00;99937.00;5077515;28;20055;-73
2023/11/14 09:43:40;;;;;;;23.15;3.72;;;;;;;11.03;100.00;99946.47;5085085;28;20047;-73
2023/11/14 09:46:24;;;;;;;20.48;3.60;;;;;;;11.05;100.00;99941.44;5076537;28;20086;-73
2023/11/14 09:49:08;;;;;;;21.95;3.05;;;;;;;11.03;100.00;99936.19;5077458;28;20048;-73
2023/11/14 09:51:53;;;;;;;25.30;3.90;;;;;;;11.05;100.00;99935.88;5089363;28;20085;-73
2023/11/14 09:54:37;;;;;;;19.20;2.85;;;;;;;11.07;100.00;99923.31;5076489;28;20105;-72
2023/11/14 09:57:21;;;;;;;34.95;4.25;;;;;;;11.08;100.00;99927.72;5089568;28;20035;-73
2023/11/14 10:00:06;;;;;;;28.45;3.63;;;;;;;11.10;100.00;99930.22;5077300;28;20035;-73
2023/11/14 10:02:51;;;;;;;23.73;3.20;;;;;;;11.11;100.00;99929.88;5077361;28;20090;-73
2023/11/14 10:05:35;;;;;;;24.02;4.95;;;;;;;11.14;100.00;99945.09;5086481;28;20063;-73
2023/11/14 10:08:19;;;;;;;34.67;4.13;;;;;;;11.18;100.00;99944.19;5083948;28;20035;-73
2023/11/14 10:11:10;;;;;;;25.27;3.53;;;;;;;11.19;100.00;99947.78;5082082;28;20042;-73
2023/11/14 10:14:01;;;;;;;29.15;4.20;;;;;;;11.22;100.00;99944.38;5084285;28;20067;-73
2023/11/14 10:16:55;;;;;;;23.17;4.10;;;;;;;11.25;100.00;99951.25;5078056;28;20043;-73
2023/11/14 10:19:59;;;;;;;28.95;3.70;;;;;;;11.27;100.00;99949.00;5089461;28;20128;-73
2023/11/14 10:22:53;;;;;;;26.13;3.70;;;;;;;11.30;100.00;99953.94;5093154;28;20035;-73
2023/11/14 10:25:37;;;;;;;18.33;3.55;;;;;;;11.29;100.00;99953.13;5095277;28;20082;-73
2023/11/14 10:28:21;;;;;;;25.02;3.53;;;;;;;11.30;100.00;99949.19;5084338;28;20055;-73
2023/11/14 10:31:05;;;;;;;28.95;3.97;;;;;;;11.31;100.00;99936.97;5087539;28;20042;-73
2023/11/14 10:33:49;;;;;;;30.15;3.78;;;;;;;11.33;100.00;99931.88;5086070;28;20100;-73
2023/11/14 10:36:46;;;;;;;20.60;3.05;;;;;;;11.35;100.00;99935.19;5076903;28;20043;-73
2023/11/14 10:39:30;;;;;;;23.25;3.80;;;;;;;11.40;100.00;99942.59;5079230;28;20054;-73
2023/11/14 10:42:14;;;;;;;28.30;4.00;;;;;;;11.37;100.00;99932.91;5093728;28;20047;-73
2023/11/14 10:44:59;;;;;;;26.55;4.25;;;;;;;11.39;100.00;99927.88;5089530;28;20046;-73
2023/11/14 10:47:43;;;;;;;25.15;3.67;;;;;;;11.39;100.00;99933.44;5082819;28;20038;-73
2023/11/14 10:50:28;;;;;;;22.65;3.42;;;;;;;11.41;100.00;99944.22;5080778;28;20094;-73
2023/11/14 10:53:13;;;;;;;22.75;3.17;;;;;;;11.44;100.00;99928.88;5089917;28;20035;-72
2023/11/14 10:55:57;;;;;;;22.75;3.53;;;;;;;11.46;100.00;99916.31;5098774;28;20456;-73
2023/11/14 10:58:42;;;;;;;20.90;3.35;;;;;;;11.46;100.00;99901.59;5084584;28;20170;-73
2023/11/14 11:01:26;;;;;;;21.73;3.38;;;;;;;11.52;100.00;99908.66;5070567;28;20187;-77
2023/11/14 11:04:13;;;;;;;19.98;3.17;;;;;;;11.58;100.00;99904.63;5079487;28;20042;-73
2023/11/14 11:06:58;;;;;;;19.98;3.30;;;;;;;11.60;100.00;99903.16;5094002;28;20434;-73
2023/11/14 11:09:42;;;;;;;19.88;3.03;;;;;;;11.66;100.00;99895.53;5093109;28;20113;-73
2023/11/14 11:12:26;;;;;;;22.30;4.05;;;;;;;11.70;100.00;99884.56;5088356;28;20051;-73
2023/11/14 11:15:11;;;;;;;20.63;3.20;;;;;;;11.74;100.00;99869.72;5085084;28;20080;-73
2023/11/14 11:17:59;;;;;;;25.98;3.80;;;;;;;11.74;100.00;99863.34;5084957;28;20040;-73
2023/11/14 11:20:43;;;;;;;18.40;3.17;;;;;;;11.77;100.00;99868.28;5088939;28;20039;-73
2023/11/14 11:23:27;;;;;;;16.95;3.40;;;;;;;11.79;100.00;99883.50;5080415;28;20074;-73
2023/11/14 11:26:11;;;;;;;15.60;3.03;;;;;;;11.81;100.00;99881.25;5094419;28;20541;-73
2023/11/14 11:28:55;;;;;;;13.75;2.30;;;;;;;11.81;100.00;99872.88;5079063;28;20055;-73
2023/11/14 11:31:39;;;;;;;22.02;3.30;;;;;;;11.83;100.00;99864.22;5082547;28;20040;-73
2023/11/14 11:34:26;;;;;;;16.00;2.53;;;;;;;11.81;100.00;99870.09;5078806;28;20044;-73
2023/11/14 11:38:03;;;;;;;15.25;2.67;;;;;;;11.83;100.00;99873.38;5078820;28;20040;-73
2023/11/14 11:41:06;;;;;;;21.05;2.85;;;;;;;11.84;100.00;99861.13;5091907;28;20116;-73
2023/11/14 11:44:09;;;;;;;17.63;3.20;;;;;;;11.85;100.00;99840.53;5079668;28;20500;-73
2023/11/14 11:46:54;;;;;;;18.95;3.25;;;;;;;11.85;100.00;99837.75;5091271;28;20035;-73
2023/11/14 11:49:38;;;;;;;13.77;2.38;;;;;;;11.88;100.00;99824.34;5087476;28;20121;-73
2023/11/14 11:52:22;;;;;;;12.85;1.98;;;;;;;11.89;100.00;99821.22;5091755;28;20047;-73
2023/11/14 11:55:15;;;;;;;8.65;1.30;;;;;;;11.90;100.00;99822.88;5078808;28;20047;-73
2023/11/14 11:58:05;;;;;;;6.43;1.85;;;;;;;11.89;100.00;99821.22;5082173;28;20384;-73
2023/11/14 12:00:49;;;;;;;7.95;1.60;;;;;;;11.91;100.00;99818.13;5079425;28;20039;-73
2023/11/14 12:03:34;;;;;;;8.05;1.55;;;;;;;11.91;100.00;99830.09;5081284;28;20098;-73
2023/11/14 12:06:18;;;;;;;6.95;1.65;;;;;;;11.96;100.00;99829.94;5075419;28;20082;-73
2023/11/14 12:09:02;;;;;;;6.75;1.63;;;;;;;12.02;100.00;99825.06;5063956;28;20075;-73
2023/11/14 12:11:46;;;;;;;8.57;1.58;;;;;;;12.06;100.00;99832.47;5077648;28;20034;-74
2023/11/14 12:14:30;;;;;;;7.80;1.48;;;;;;;12.11;100.00;99828.69;5077875;28;20079;-73
2023/11/14 12:17:15;;;;;;;8.00;1.33;;;;;;;12.16;100.00;99820.22;5076609;28;20063;-73
2023/11/14 12:20:00;;;;;;;7.85;1.70;;;;;;;12.25;100.00;99845.28;5092493;28;20061;-73
2023/11/14 12:22:47;;;;;;;7.93;1.20;;;;;;;12.41;100.00;99837.34;5091096;28;20525;-73
2023/11/14 12:25:30;;;;;;;5.88;1.15;;;;;;;12.47;100.00;99848.00;5087551;28;20407;-73
2023/11/14 12:28:15;;;;;;;6.75;1.42;;;;;;;12.58;100.00;99856.88;5093399;28;20062;-73
2023/11/14 12:31:00;;;;;;;8.48;1.85;;;;;;;12.67;100.00;99840.19;5089417;28;20090;-73
2023/11/14 12:33:45;;;;;;;6.75;1.95;;;;;;;12.75;100.00;99848.56;5087871;28;20042;-73
2023/11/14 12:36:29;;;;;;;8.35;1.63;;;;;;;12.82;100.00;99848.09;5079684;28;20092;-73